Time;durP1;ratioP1;P1;durP2;ratioP2;P2;SDS_P1;SDS_P2;PMS_P1;PMS_P2;Temp;Humidity;BMP_temperature;BMP_pressure;BME280_temperature;BME280_humidity;BME280_pressure;Samples;Min_cycle;Max_cycle;Signal;HPM_P1;HPM_P2
2023/07/30 00:01:41;;;;;;;;;3.00;3.00;;;;;21.95;58.25;100818.91;5035671;28;45245;-71
2023/07/30 00:04:06;;;;;;;;;3.00;2.75;;;;;21.85;58.27;100803.13;5036022;28;45248;-70
2023/07/30 00:06:31;;;;;;;;;0.50;0.50;;;;;22.03;58.29;100837.63;5035888;28;45249;-70
2023/07/30 00:08:57;;;;;;;;;1.25;1.00;;;;;22.01;58.09;100843.22;5035343;28;46329;-69
2023/07/30 00:11:22;;;;;;;;;3.00;2.00;;;;;21.96;58.61;100842.22;5035509;28;45229;-69
2023/07/30 00:13:47;;;;;;;;;3.50;1.75;;;;;21.97;57.78;100843.88;5035500;28;45959;-70
2023/07/30 00:16:13;;;;;;;;;2.75;2.00;;;;;21.98;57.39;100864.47;5035733;28;45214;-71
2023/07/30 00:18:38;;;;;;;;;1.00;1.00;;;;;21.55;57.37;100806.38;5035240;28;46477;-71
2023/07/30 00:21:04;;;;;;;;;1.00;1.00;;;;;21.82;57.21;100860.38;5035549;28;45243;-71
2023/07/30 00:23:29;;;;;;;;;1.00;1.00;;;;;21.65;57.36;100834.88;5035751;28;45244;-70
2023/07/30 00:25:54;;;;;;;;;2.50;1.00;;;;;21.44;56.52;100803.53;5035669;28;45408;-70
2023/07/30 00:28:20;;;;;;;;;2.00;2.00;;;;;21.36;56.28;100799.16;5035243;28;45597;-70
2023/07/30 00:30:45;;;;;;;;;1.00;1.00;;;;;21.35;56.96;100797.50;5035381;28;46180;-70
2023/07/30 00:33:11;;;;;;;;;1.00;1.00;;;;;21.68;56.37;100850.69;5035585;28;45500;-70
2023/07/30 00:35:36;;;;;;;;;1.75;1.00;;;;;21.72;56.56;100868.13;5035546;28;45310;-70
2023/07/30 00:38:01;;;;;;;;;2.00;2.00;;;;;21.64;56.71;100866.50;5035200;28;46444;-70
2023/07/30 00:40:26;;;;;;;;;2.00;0.25;;;;;21.55;56.62;100857.78;5037642;28;45507;-70
2023/07/30 00:42:52;;;;;;;;;1.00;1.00;;;;;21.59;56.85;100869.00;5037911;28;54181;-71
2023/07/30 00:45:17;;;;;;;;;1.00;1.00;;;;;21.44;56.72;100847.66;5038781;28;45339;-70
2023/07/30 00:47:43;;;;;;;;;1.25;1.25;;;;;21.55;56.50;100879.44;5038267;28;46349;-70
2023/07/30 00:50:12;;;;;;;;;2.00;1.00;;;;;21.47;56.27;100865.31;5038474;28;45293;-70
2023/07/30 00:52:38;;;;;;;;;2.00;2.00;;;;;21.49;55.83;100874.03;5038356;28;45317;-70
2023/07/30 00:55:04;;;;;;;;;1.00;1.00;;;;;21.40;55.55;100865.31;5038712;28;45500;-70
2023/07/30 00:57:30;;;;;;;;;1.50;0.75;;;;;21.42;55.27;100878.63;5037734;28;46947;-71
2023/07/30 00:59:57;;;;;;;;;0.00;0.00;;;;;21.39;55.46;100893.41;5038267;28;45279;-70
2023/07/30 01:02:22;;;;;;;;;2.00;0.25;;;;;21.38;55.08;100905.25;5038506;28;45313;-70
2023/07/30 01:04:48;;;;;;;;;1.00;1.00;;;;;21.27;55.32;100902.38;5038493;28;45557;-71
2023/07/30 01:07:13;;;;;;;;;1.00;1.00;;;;;21.26;56.07;100896.16;5038195;28;45882;-71
2023/07/30 01:09:39;;;;;;;;;1.00;1.00;;;;;21.25;55.99;100899.91;5038379;28;45397;-71
2023/07/30 01:12:06;;;;;;;;;0.75;0.75;;;;;21.26;55.73;100901.56;5038381;28;45388;-70
2023/07/30 01:14:32;;;;;;;;;1.50;1.00;;;;;21.14;56.01;100882.41;5038626;28;45332;-71
2023/07/30 01:16:58;;;;;;;;;1.00;1.00;;;;;20.99;55.98;100862.84;5038031;28;46668;-70
2023/07/30 01:19:23;;;;;;;;;1.00;1.00;;;;;20.62;55.83;100829.19;5038183;28;45287;-70
2023/07/30 01:21:48;;;;;;;;;0.75;0.75;;;;;21.09;55.59;100916.50;5038458;28;45311;-71
2023/07/30 01:24:14;;;;;;;;;0.25;0.25;;;;;20.93;55.07;100896.13;5038304;28;45625;-70
2023/07/30 01:26:44;;;;;;;;;2.00;0.25;;;;;21.01;55.41;100922.94;5037850;28;45984;-70
2023/07/30 01:29:24;;;;;;;;;0.00;0.00;;;;;20.94;55.63;100914.84;5037662;28;45316;-72
2023/07/30 01:32:04;;;;;;;;;2.25;1.00;;;;;20.96;55.61;100915.47;5038111;28;45325;-71
2023/07/30 01:34:32;;;;;;;;;1.25;1.25;;;;;20.96;55.28;100926.28;5037927;28;45331;-70
2023/07/30 01:36:58;;;;;;;;;1.75;1.00;;;;;20.80;55.66;100905.06;5019548;28;46585;-70
2023/07/30 01:39:24;;;;;;;;;0.00;0.00;;;;;20.96;55.75;100939.78;5037776;28;45440;-70
2023/07/30 01:41:49;;;;;;;;;1.00;1.00;;;;;20.63;55.87;100906.53;5037398;28;45515;-70
2023/07/30 01:44:14;;;;;;;;;0.00;0.00;;;;;20.88;56.05;100950.81;5037856;28;45321;-71
2023/07/30 01:46:39;;;;;;;;;1.00;1.00;;;;;20.80;55.77;100932.06;5036614;28;67463;-70
2023/07/30 01:49:05;;;;;;;;;1.00;1.00;;;;;20.49;55.94;100888.63;5037078;28;65297;-69
2023/07/30 01:51:30;;;;;;;;;0.00;0.00;;;;;20.82;55.91;100942.69;5037302;28;45238;-70
2023/07/30 01:53:55;;;;;;;;;1.00;0.00;;;;;20.82;56.18;100948.94;5037493;28;46338;-69
2023/07/30 01:56:21;;;;;;;;;0.00;0.00;;;;;20.59;56.01;100907.94;5037475;28;46875;-70
2023/07/30 01:58:49;;;;;;;;;3.25;2.00;;;;;20.85;56.27;100959.34;5037236;28;45563;-71
2023/07/30 02:01:15;;;;;;;;;1.50;1.50;;;;;20.88;56.17;100967.03;5037671;28;45456;-70
2023/07/30 02:03:41;;;;;;;;;2.00;2.00;;;;;20.71;56.20;100938.72;5037718;28;45434;-71
2023/07/30 02:06:06;;;;;;;;;0.00;0.00;;;;;20.87;55.96;100959.13;5037152;28;45611;-70
2023/07/30 02:08:31;;;;;;;;;2.50;1.00;;;;;20.88;56.49;100964.34;5037491;28;45350;-71
2023/07/30 02:10:58;;;;;;;;;2.00;1.25;;;;;20.85;56.09;100970.16;5037631;28;45325;-70
2023/07/30 02:13:24;;;;;;;;;1.00;1.00;;;;;20.75;56.11;100956.19;5037575;28;45352;-71
2023/07/30 02:15:50;;;;;;;;;1.25;1.00;;;;;20.82;56.08;100962.47;5037170;28;46725;-69
2023/07/30 02:18:15;;;;;;;;;1.25;1.00;;;;;20.86;56.64;100971.81;5037429;28;45539;-70
2023/07/30 02:20:41;;;;;;;;;2.25;1.00;;;;;20.79;56.63;100960.13;5037367;28;45392;-70
2023/07/30 02:23:07;;;;;;;;;0.25;0.25;;;;;20.83;56.61;100977.63;5037563;28;45420;-70
2023/07/30 02:25:32;;;;;;;;;1.00;0.00;;;;;20.31;56.99;100897.28;5036913;28;45775;-72
2023/07/30 02:27:59;;;;;;;;;1.00;1.00;;;;;20.64;56.95;100967.63;5036901;28;45364;-71
2023/07/30 02:30:24;;;;;;;;;1.75;0.00;;;;;20.67;57.07;100972.59;5037447;28;45486;-70
2023/07/30 02:32:50;;;;;;;;;1.00;1.00;;;;;20.74;57.08;100983.41;5037385;28;45342;-70
2023/07/30 02:35:15;;;;;;;;;1.25;0.25;;;;;20.57;56.87;100964.06;5036937;28;45786;-70
2023/07/30 02:37:40;;;;;;;;;1.50;1.50;;;;;20.58;57.13;100960.31;5036862;28;45427;-70
2023/07/30 02:40:06;;;;;;;;;2.25;2.00;;;;;20.57;57.23;100973.00;5037008;28;45307;-70
2023/07/30 02:42:31;;;;;;;;;3.00;1.00;;;;;20.61;57.32;100984.22;5036854;28;45328;-70
2023/07/30 02:44:57;;;;;;;;;4.50;4.50;;;;;20.39;57.40;100937.59;5036700;28;46592;-70
2023/07/30 02:47:22;;;;;;;;;0.50;0.00;;;;;20.55;57.42;100963.44;5036839;28;45269;-70
2023/07/30 02:49:47;;;;;;;;;2.00;1.00;;;;;20.40;57.20;100939.25;5036135;28;63522;-70
2023/07/30 02:52:13;;;;;;;;;2.25;0.75;;;;;20.57;57.13;100972.16;5035476;28;45290;-70
2023/07/30 02:54:38;;;;;;;;;0.25;0.25;;;;;20.63;57.32;100988.41;5035922;28;61538;-70
2023/07/30 02:57:04;;;;;;;;;3.25;2.00;;;;;19.98;57.69;100872.88;5035885;28;61480;-70
2023/07/30 02:59:29;;;;;;;;;0.25;0.00;;;;;19.93;57.21;100872.66;5036894;28;45246;-71
2023/07/30 03:01:54;;;;;;;;;1.00;1.00;;;;;20.57;57.15;100980.25;5035550;28;46081;-69
2023/07/30 03:04:19;;;;;;;;;0.00;0.00;;;;;20.52;57.36;100971.94;5035964;28;63685;-69
2023/07/30 03:06:45;;;;;;;;;1.50;1.00;;;;;20.54;57.37;100981.50;5036335;28;45232;-70
2023/07/30 03:09:10;;;;;;;;;1.00;1.00;;;;;20.57;57.45;100993.75;5036555;28;45258;-71
2023/07/30 03:11:35;;;;;;;;;2.75;2.00;;;;;20.39;57.38;100978.09;5036796;28;45565;-71
2023/07/30 03:14:01;;;;;;;;;7.00;7.00;;;;;20.52;57.97;100983.56;5035916;28;46859;-70
2023/07/30 03:16:26;;;;;;;;;2.25;1.50;;;;;20.60;57.79;100987.94;5036470;28;45226;-71
2023/07/30 03:18:51;;;;;;;;;1.75;1.00;;;;;20.40;57.54;100960.00;5036561;28;45226;-70
2023/07/30 03:21:17;;;;;;;;;0.25;0.25;;;;;20.51;57.70;100990.00;5036641;28;45357;-71
2023/07/30 03:23:44;;;;;;;;;1.50;1.00;;;;;20.44;57.62;101004.53;5035654;28;59286;-70
2023/07/30 03:26:09;;;;;;;;;0.00;0.00;;;;;20.38;57.59;100983.69;5036312;28;45477;-69
2023/07/30 03:28:35;;;;;;;;;1.00;1.00;;;;;20.35;58.10;100996.56;5036119;28;45288;-71
2023/07/30 03:31:00;;;;;;;;;1.25;1.00;;;;;20.26;57.92;100978.91;5036620;28;45243;-70
2023/07/30 03:33:25;;;;;;;;;2.00;2.00;;;;;20.37;58.11;100999.06;5036392;28;45602;-70
2023/07/30 03:35:51;;;;;;;;;1.00;1.00;;;;;20.36;57.76;100998.22;5036363;28;45547;-70
2023/07/30 03:38:16;;;;;;;;;2.00;2.00;;;;;20.26;57.67;100995.09;5036355;28;45473;-70
2023/07/30 03:40:41;;;;;;;;;2.50;0.50;;;;;20.25;58.14;101012.31;5036475;28;45312;-70
2023/07/30 03:43:07;;;;;;;;;1.00;0.50;;;;;20.30;58.41;101012.56;5017959;28;46823;-72
2023/07/30 03:45:32;;;;;;;;;0.00;0.00;;;;;20.26;58.32;101000.50;5035896;28;45379;-70
2023/07/30 03:47:58;;;;;;;;;4.25;2.00;;;;;20.30;58.36;101026.06;5035834;28;45246;-70
2023/07/30 03:50:23;;;;;;;;;1.00;1.00;;;;;20.27;58.53;101009.41;5036192;28;45514;-72
2023/07/30 03:52:48;;;;;;;;;1.25;1.25;;;;;20.33;58.43;101014.00;5035880;28;46430;-70
2023/07/30 03:55:15;;;;;;;;;1.50;1.50;;;;;20.21;58.61;100999.41;5035374;28;57448;-70
2023/07/30 03:57:40;;;;;;;;;1.00;1.00;;;;;20.24;58.55;101021.47;5035768;28;45189;-71
2023/07/30 04:00:06;;;;;;;;;1.00;1.00;;;;;19.91;58.46;100972.69;5036248;28;45271;-71
2023/07/30 04:02:31;;;;;;;;;17.00;17.00;;;;;20.18;58.43;101016.00;5035853;28;45809;-70
2023/07/30 04:04:57;;;;;;;;;2.00;2.00;;;;;20.14;58.51;101015.59;5017788;28;45778;-70
2023/07/30 04:07:22;;;;;;;;;2.00;2.00;;;;;20.21;58.14;101038.03;5035752;28;45450;-70
2023/07/30 04:09:47;;;;;;;;;1.00;1.00;;;;;20.10;58.52;101022.41;5035783;28;46497;-70
2023/07/30 04:12:13;;;;;;;;;2.25;0.50;;;;;20.16;58.62;101034.28;5035672;28;45358;-70
2023/07/30 04:14:38;;;;;;;;;1.00;1.00;;;;;19.77;58.58;100975.50;5037544;28;67858;-70
2023/07/30 04:17:03;;;;;;;;;3.00;1.00;;;;;20.14;58.44;101034.47;5039447;28;45525;-70
2023/07/30 04:19:29;;;;;;;;;1.00;1.00;;;;;20.02;58.54;101011.75;5039713;28;45313;-70
2023/07/30 04:21:54;;;;;;;;;3.00;1.75;;;;;20.11;58.40;101042.16;5038790;28;46442;-70
2023/07/30 04:24:19;;;;;;;;;1.75;1.00;;;;;19.99;58.61;101028.38;5038826;28;45285;-71
2023/07/30 04:26:45;;;;;;;;;1.50;1.25;;;;;19.99;58.63;101033.75;5038832;28;45405;-70
2023/07/30 04:29:10;;;;;;;;;1.75;1.00;;;;;19.87;58.66;101013.78;5037256;28;45420;-71
2023/07/30 04:31:36;;;;;;;;;2.00;2.00;;;;;19.62;58.81;100981.88;5038656;28;45861;-71
2023/07/30 04:34:01;;;;;;;;;0.75;0.75;;;;;20.04;58.74;101052.91;5038542;28;45309;-70
2023/07/30 04:36:26;;;;;;;;;2.00;0.75;;;;;19.89;58.78;101036.00;5038247;28;45495;-70
2023/07/30 04:38:52;;;;;;;;;1.25;1.25;;;;;19.66;58.67;100993.09;5038625;28;45539;-70
2023/07/30 04:41:18;;;;;;;;;3.00;1.75;;;;;20.03;58.59;101052.09;5038231;28;46079;-70
2023/07/30 04:43:44;;;;;;;;;0.25;0.00;;;;;19.90;58.92;101046.59;5038234;28;45253;-70
2023/07/30 04:46:09;;;;;;;;;1.00;1.00;;;;;19.86;59.18;101049.88;5038432;28;45439;-70
2023/07/30 04:48:34;;;;;;;;;0.75;0.75;;;;;19.93;59.20;101064.25;5038712;28;45354;-71
2023/07/30 04:50:59;;;;;;;;;2.50;1.00;;;;;19.75;59.12;101043.16;5037580;28;67869;-70
2023/07/30 04:53:25;;;;;;;;;1.00;1.00;;;;;19.80;59.57;101061.44;5038235;28;47401;-70
2023/07/30 04:55:56;;;;;;;;;2.00;2.00;;;;;19.90;59.29;101070.88;5037979;28;45304;-71
2023/07/30 04:58:21;;;;;;;;;3.75;1.25;;;;;19.74;59.14;101063.91;5038385;28;45433;-71
2023/07/30 05:00:46;;;;;;;;;1.00;1.00;;;;;19.80;59.77;101075.78;5038125;28;46490;-69
2023/07/30 05:03:12;;;;;;;;;3.00;2.00;;;;;19.80;59.40;101091.13;5038245;28;45483;-70
2023/07/30 05:05:37;;;;;;;;;2.75;1.75;;;;;19.52;59.81;101054.16;5038004;28;45290;-70
2023/07/30 05:08:02;;;;;;;;;1.75;1.75;;;;;19.68;59.32;101069.25;5036596;28;57070;-70
2023/07/30 05:10:28;;;;;;;;;0.00;0.00;;;;;19.86;59.21;101093.06;5038168;28;46392;-70
2023/07/30 05:12:53;;;;;;;;;1.50;1.50;;;;;19.83;59.04;101091.59;5037319;28;51690;-70
2023/07/30 05:15:18;;;;;;;;;1.25;1.25;;;;;19.84;59.24;101089.72;5038118;28;45339;-70
2023/07/30 05:17:44;;;;;;;;;0.50;0.50;;;;;19.88;59.15;101082.91;5035954;28;45527;-70
2023/07/30 05:20:09;;;;;;;;;2.00;1.50;;;;;19.87;58.88;101097.44;5037141;28;65333;-70
2023/07/30 05:22:35;;;;;;;;;4.50;1.00;;;;;19.76;59.06;101093.38;5037856;28;45997;-70
2023/07/30 05:25:00;;;;;;;;;1.50;1.25;;;;;19.71;59.27;101085.88;5035957;28;45272;-70
2023/07/30 05:27:28;;;;;;;;;4.00;2.75;;;;;19.91;59.05;101098.69;5037908;28;45371;-70
2023/07/30 05:29:53;;;;;;;;;1.50;1.00;;;;;19.81;59.39;101095.50;5037632;28;45833;-71
2023/07/30 05:32:18;;;;;;;;;0.75;0.75;;;;;19.88;58.96;101107.19;5019682;28;46782;-71
2023/07/30 05:34:44;;;;;;;;;2.00;1.00;;;;;19.44;59.20;101038.13;5037646;28;50840;-70
2023/07/30 05:37:09;;;;;;;;;4.75;2.25;;;;;19.56;58.69;101057.31;5038067;28;45558;-71
2023/07/30 05:39:34;;;;;;;;;3.00;2.00;;;;;19.86;58.83;101120.03;5037632;28;46373;-71
2023/07/30 05:41:59;;;;;;;;;1.00;1.00;;;;;19.49;59.35;101046.47;5037326;28;48979;-71
2023/07/30 05:44:25;;;;;;;;;0.00;0.00;;;;;19.92;58.95;101108.47;5038150;28;45368;-71
2023/07/30 05:46:50;;;;;;;;;2.00;1.75;;;;;19.50;58.57;101034.66;5037786;28;45301;-71
2023/07/30 05:49:15;;;;;;;;;2.25;1.00;;;;;19.87;58.72;101078.53;5037372;28;46470;-71
2023/07/30 05:51:41;;;;;;;;;1.75;1.50;;;;;19.97;58.87;101116.78;5037408;28;45463;-71
2023/07/30 05:54:06;;;;;;;;;2.00;0.25;;;;;19.86;58.64;101109.25;5037038;28;50033;-70
2023/07/30 05:56:31;;;;;;;;;1.00;1.00;;;;;19.96;58.98;101109.72;5037554;28;45240;-70
2023/07/30 05:58:57;;;;;;;;;0.00;0.00;;;;;20.03;58.72;101114.16;5037182;28;46667;-70
2023/07/30 06:01:22;;;;;;;;;1.25;1.25;;;;;20.09;58.32;101117.09;5037448;28;45277;-70
2023/07/30 06:03:48;;;;;;;;;3.00;2.00;;;;;20.08;57.69;101113.56;5037789;28;45503;-70
2023/07/30 06:06:14;;;;;;;;;2.25;2.25;;;;;19.58;58.30;101036.38;5037397;28;45274;-70
2023/07/30 06:08:39;;;;;;;;;1.00;1.00;;;;;19.50;57.98;101045.44;5035894;28;47504;-70
2023/07/30 06:11:04;;;;;;;;;2.75;1.75;;;;;19.93;58.21;101104.72;5037302;28;45827;-71
2023/07/30 06:13:30;;;;;;;;;0.50;0.50;;;;;20.12;57.95;101128.31;5037032;28;45202;-70
2023/07/30 06:15:55;;;;;;;;;5.00;3.00;;;;;20.30;58.21;101135.94;5037466;28;45489;-70
2023/07/30 06:18:21;;;;;;;;;2.00;2.00;;;;;20.61;57.50;101130.91;5036931;28;45672;-70
2023/07/30 06:20:46;;;;;;;;;2.75;0.75;;;;;20.67;56.45;101080.69;5036783;28;45207;-70
2023/07/30 06:23:11;;;;;;;;;1.00;1.00;;;;;21.40;55.48;101133.09;5036987;28;45475;-70
2023/07/30 06:25:37;;;;;;;;;1.50;1.50;;;;;21.62;53.93;101113.97;5037248;28;45202;-70
2023/07/30 06:28:03;;;;;;;;;2.75;2.00;;;;;22.01;53.24;101137.50;5036382;28;45736;-70
2023/07/30 06:30:28;;;;;;;;;2.00;2.00;;;;;22.26;52.96;101135.84;5036636;28;45539;-71
2023/07/30 06:32:53;;;;;;;;;1.25;1.25;;;;;22.45;52.02;101126.00;5036792;28;45340;-74
2023/07/30 06:35:19;;;;;;;;;2.00;2.00;;;;;22.49;51.80;101097.44;5036987;28;45697;-71
2023/07/30 06:37:44;;;;;;;;;0.75;0.75;;;;;23.06;50.93;101152.72;5036601;28;46502;-71
2023/07/30 06:40:09;;;;;;;;;2.75;1.00;;;;;23.23;49.53;101142.19;5036084;28;54273;-70
2023/07/30 06:42:35;;;;;;;;;1.25;1.00;;;;;22.72;49.78;101051.69;5036534;28;45286;-71
2023/07/30 06:45:00;;;;;;;;;2.00;1.00;;;;;22.15;48.60;100947.75;5036782;28;45299;-71
2023/07/30 06:47:26;;;;;;;;;1.00;1.00;;;;;23.33;49.75;101164.25;5036577;28;46440;-71
2023/07/30 06:49:51;;;;;;;;;0.00;0.00;;;;;23.37;49.32;101155.44;5036626;28;45426;-70
2023/07/30 06:52:16;;;;;;;;;2.75;2.75;;;;;23.29;49.35;101149.44;5035208;28;45896;-70
2023/07/30 06:54:41;;;;;;;;;3.25;2.00;;;;;23.37;49.25;101165.47;5036909;28;45394;-71
2023/07/30 06:57:07;;;;;;;;;1.75;1.75;;;;;23.16;48.87;101157.66;5036255;28;46907;-71
2023/07/30 06:59:34;;;;;;;;;0.25;0.25;;;;;23.21;49.38;101182.25;5018416;28;45503;-70
2023/07/30 07:01:59;;;;;;;;;1.00;1.00;;;;;23.16;49.26;101174.75;5036603;28;45172;-70
2023/07/30 07:04:24;;;;;;;;;3.00;1.50;;;;;22.94;49.37;101143.56;5036700;28;45465;-71
2023/07/30 07:06:51;;;;;;;;;1.50;1.25;;;;;22.83;50.03;101142.38;5036071;28;48182;-71
2023/07/30 07:09:17;;;;;;;;;0.75;0.75;;;;;22.85;49.11;101158.44;5035794;28;61686;-71
2023/07/30 07:11:42;;;;;;;;;0.75;0.75;;;;;22.90;49.94;101164.03;5036390;28;45479;-70
2023/07/30 07:14:07;;;;;;;;;0.25;0.25;;;;;22.97;49.91;101172.97;5036312;28;45283;-69
2023/07/30 07:16:33;;;;;;;;;2.00;1.00;;;;;23.03;49.78;101175.66;5036294;28;46538;-71
2023/07/30 07:18:58;;;;;;;;;2.00;2.00;;;;;22.85;49.52;101156.56;5035973;28;45427;-70
2023/07/30 07:21:23;;;;;;;;;1.25;1.25;;;;;22.68;49.12;101137.19;5035759;28;60160;-71
2023/07/30 07:23:48;;;;;;;;;2.00;1.00;;;;;22.90;49.40;101164.03;5036218;28;45288;-71
2023/07/30 07:26:14;;;;;;;;;3.00;2.00;;;;;22.91;49.28;101154.84;5036276;28;45578;-71
2023/07/30 07:28:39;;;;;;;;;2.00;1.00;;;;;22.71;49.24;101112.34;5017788;28;45588;-71
2023/07/30 07:31:04;;;;;;;;;2.00;2.00;;;;;23.22;49.61;101173.88;5017852;28;47306;-71
2023/07/30 07:33:30;;;;;;;;;3.50;3.50;;;;;23.35;48.13;101179.25;5035910;28;45418;-71
2023/07/30 07:36:08;;;;;;;;;0.75;0.75;;;;;23.54;48.63;101165.78;5035724;28;45532;-71
2023/07/30 07:38:34;;;;;;;;;2.50;1.75;;;;;23.54;48.06;101141.34;5035528;28;45507;-71
2023/07/30 07:41:02;;;;;;;;;2.00;2.00;;;;;23.83;47.50;101164.34;5036094;28;45581;-70
2023/07/30 07:43:28;;;;;;;;;4.00;2.25;;;;;23.97;46.89;101161.28;5035720;28;45725;-70
2023/07/30 07:45:53;;;;;;;;;3.00;1.50;;;;;24.08;45.54;101158.91;5035216;28;49563;-71
2023/07/30 07:48:18;;;;;;;;;1.00;1.00;;;;;24.19;46.34;101177.19;5036513;28;45410;-70
2023/07/30 07:50:45;;;;;;;;;2.00;2.00;;;;;24.09;45.25;101174.16;5039571;28;45436;-70
2023/07/30 07:53:10;;;;;;;;;1.50;1.50;;;;;23.90;45.72;101190.41;5039419;28;45772;-70
2023/07/30 07:55:35;;;;;;;;;2.00;2.00;;;;;23.77;45.66;101181.50;5038175;28;66164;-69
2023/07/30 07:58:00;;;;;;;;;4.00;2.00;;;;;23.63;45.89;101194.38;5038749;28;45428;-70
2023/07/30 08:00:26;;;;;;;;;3.00;2.25;;;;;23.68;46.82;101186.38;5038218;28;57626;-70
2023/07/30 08:02:51;;;;;;;;;1.25;1.25;;;;;23.66;45.96;101186.63;5038885;28;45446;-71
2023/07/30 08:05:16;;;;;;;;;2.00;2.00;;;;;23.60;46.56;101194.78;5038553;28;56528;-71
2023/07/30 08:07:45;;;;;;;;;2.25;2.25;;;;;23.53;46.54;101207.53;5038799;28;45375;-70
2023/07/30 08:10:10;;;;;;;;;2.00;2.00;;;;;23.52;45.68;101211.31;5038705;28;45243;-70
2023/07/30 08:12:36;;;;;;;;;3.25;3.00;;;;;23.52;46.35;101209.41;5038772;28;45468;-70
2023/07/30 08:15:01;;;;;;;;;1.50;1.50;;;;;23.57;45.85;101215.06;5038617;28;46311;-70
2023/07/30 08:17:27;;;;;;;;;2.50;1.00;;;;;23.51;46.00;101209.63;5038864;28;45427;-71
2023/07/30 08:19:52;;;;;;;;;2.25;1.00;;;;;23.52;45.62;101220.28;5038929;28;45464;-71
2023/07/30 08:22:17;;;;;;;;;2.25;2.25;;;;;23.52;46.21;101212.13;5039320;28;45290;-70
2023/07/30 08:24:43;;;;;;;;;2.00;2.00;;;;;23.29;46.09;101184.72;5038904;28;46109;-70
2023/07/30 08:27:08;;;;;;;;;1.00;1.00;;;;;23.36;45.74;101197.19;5038487;28;45365;-71
2023/07/30 08:29:34;;;;;;;;;4.75;4.75;;;;;23.51;45.55;101204.22;5039019;28;45403;-70
2023/07/30 08:31:59;;;;;;;;;3.25;2.00;;;;;23.58;45.67;101210.44;5020912;28;45519;-70
2023/07/30 08:34:24;;;;;;;;;1.00;1.00;;;;;23.62;45.62;101206.25;5038161;28;46242;-71
2023/07/30 08:36:50;;;;;;;;;8.33;8.33;;;;;23.63;45.59;101197.09;5038551;28;45313;-71
2023/07/30 08:39:15;;;;;;;;;2.75;1.00;;;;;23.81;45.36;101216.13;5037724;28;62150;-71
2023/07/30 08:41:41;;;;;;;;;3.25;2.25;;;;;23.66;45.33;101174.91;5020673;28;45321;-70
2023/07/30 08:44:06;;;;;;;;;2.75;2.75;;;;;23.85;44.67;101190.25;5038024;28;45720;-71
2023/07/30 08:46:32;;;;;;;;;2.00;2.00;;;;;24.00;44.86;101208.06;5038364;28;45295;-70
2023/07/30 08:48:57;;;;;;;;;4.00;4.00;;;;;23.90;44.71;101192.28;5038768;28;45329;-70
2023/07/30 08:51:24;;;;;;;;;2.25;1.25;;;;;23.89;44.97;101224.03;5039017;28;45425;-70
2023/07/30 08:53:51;;;;;;;;;2.00;2.00;;;;;23.83;44.41;101211.34;5038283;28;45826;-70
2023/07/30 08:56:17;;;;;;;;;2.25;2.00;;;;;23.86;45.00;101212.78;5038500;28;45287;-71
2023/07/30 08:58:44;;;;;;;;;1.00;1.00;;;;;23.90;44.74;101231.13;5038611;28;45350;-70
2023/07/30 09:01:11;;;;;;;;;1.75;1.00;;;;;23.92;44.88;101223.59;5037265;28;45561;-70
2023/07/30 09:03:40;;;;;;;;;3.50;1.50;;;;;23.88;44.63;101227.81;5038442;28;46869;-71
2023/07/30 09:06:09;;;;;;;;;0.75;0.75;;;;;23.61;44.86;101182.88;5038253;28;45587;-71
2023/07/30 09:08:34;;;;;;;;;2.00;0.50;;;;;23.52;44.55;101154.31;5038522;28;45421;-70
2023/07/30 09:11:07;;;;;;;;;2.75;2.75;;;;;23.76;44.32;101186.09;5038562;28;45388;-71
2023/07/30 09:13:40;;;;;;;;;3.00;1.00;;;;;23.95;44.48;101211.47;5038035;28;45653;-70
2023/07/30 09:16:11;;;;;;;;;2.00;2.00;;;;;24.03;44.01;101203.06;5038252;28;45288;-72
2023/07/30 09:18:40;;;;;;;;;1.25;1.25;;;;;23.93;43.91;101206.25;5038305;28;45290;-70
2023/07/30 09:21:06;;;;;;;;;3.00;1.25;;;;;23.92;43.33;101204.59;5038218;28;45276;-72
2023/07/30 09:23:31;;;;;;;;;2.00;2.00;;;;;23.79;44.41;101207.38;5037863;28;46353;-70
2023/07/30 09:25:58;;;;;;;;;2.25;2.25;;;;;23.93;44.24;101208.97;5037176;28;55100;-71
2023/07/30 09:28:30;;;;;;;;;3.00;1.00;;;;;23.88;44.06;101216.13;5036398;28;45534;-70
2023/07/30 09:31:03;;;;;;;;;1.25;1.25;;;;;23.89;43.89;101205.03;5038052;28;45505;-69
2023/07/30 09:33:28;;;;;;;;;2.25;1.75;;;;;23.95;43.23;101203.31;5037784;28;46346;-70
2023/07/30 09:35:55;;;;;;;;;3.25;1.00;;;;;23.46;43.93;101114.50;5037977;28;45295;-71
2023/07/30 09:38:20;;;;;;;;;3.50;3.00;;;;;23.75;44.03;101149.16;5038028;28;45483;-71
2023/07/30 09:40:49;;;;;;;;;2.00;2.00;;;;;24.03;43.25;101202.19;5038073;28;45617;-72
2023/07/30 09:43:15;;;;;;;;;2.00;1.00;;;;;23.97;42.92;101196.59;5037454;28;46452;-71
2023/07/30 09:45:46;;;;;;;;;2.00;2.00;;;;;24.00;44.43;101180.91;5037441;28;45473;-70
2023/07/30 09:48:11;;;;;;;;;1.00;1.00;;;;;24.01;42.97;101169.00;5037747;28;45551;-70
2023/07/30 09:50:37;;;;;;;;;3.50;2.25;;;;;24.23;43.30;101198.28;5037775;28;45248;-70
2023/07/30 09:53:04;;;;;;;;;2.00;2.00;;;;;24.12;43.19;101179.16;5035817;28;45872;-71
2023/07/30 09:55:30;;;;;;;;;2.00;2.00;;;;;24.23;41.61;101192.84;5037459;28;45551;-71
2023/07/30 09:57:55;;;;;;;;;1.25;0.75;;;;;24.23;41.89;101195.56;5037537;28;45269;-71
2023/07/30 10:00:20;;;;;;;;;2.75;2.00;;;;;24.42;42.14;101207.28;5037686;28;45491;-71
2023/07/30 10:02:48;;;;;;;;;1.25;1.00;;;;;24.49;41.42;101201.81;5036862;28;56512;-70
2023/07/30 10:05:18;;;;;;;;;2.00;1.00;;;;;24.58;41.83;101201.28;5037454;28;45251;-71
2023/07/30 10:08:10;;;;;;;;;1.00;1.00;;;;;24.73;41.71;101208.25;5037835;28;45281;-70
2023/07/30 10:10:36;;;;;;;;;3.00;1.75;;;;;24.75;40.83;101208.84;5037412;28;45593;-70
2023/07/30 10:13:06;;;;;;;;;1.25;1.25;;;;;24.87;40.80;101220.66;5036848;28;46204;-71
2023/07/30 10:15:36;;;;;;;;;1.75;1.75;;;;;24.85;40.64;101234.47;5037131;28;45345;-69
2023/07/30 10:18:02;;;;;;;;;1.00;1.00;;;;;24.71;40.22;101215.81;5037568;28;45301;-71
2023/07/30 10:20:31;;;;;;;;;2.00;2.00;;;;;24.45;40.48;101195.19;5037467;28;45519;-69
2023/07/30 10:22:58;;;;;;;;;4.00;2.00;;;;;24.55;41.06;101218.06;5037111;28;46569;-70
2023/07/30 10:25:44;;;;;;;;;2.50;1.25;;;;;24.64;41.25;101220.50;5036838;28;45404;-70
2023/07/30 10:28:25;;;;;;;;;1.00;1.00;;;;;24.66;40.58;101224.66;5036696;28;45293;-70
2023/07/30 10:31:01;;;;;;;;;1.00;1.00;;;;;24.74;40.68;101237.94;5037035;28;45352;-71
2023/07/30 10:33:50;;;;;;;;;1.75;1.75;;;;;24.76;40.65;101240.44;5036597;28;47280;-69
2023/07/30 10:36:30;;;;;;;;;1.75;1.50;;;;;24.45;39.54;101187.03;5036790;28;45543;-71
2023/07/30 10:38:56;;;;;;;;;2.50;2.50;;;;;24.66;40.07;101229.25;5036822;28;45441;-70
2023/07/30 10:41:21;;;;;;;;;1.00;1.00;;;;;24.66;40.12;101232.81;5036977;28;45637;-71
2023/07/30 10:43:49;;;;;;;;;1.00;1.00;;;;;24.62;40.44;101239.72;5036618;28;45411;-71
2023/07/30 10:46:17;;;;;;;;;1.00;1.00;;;;;24.57;40.08;101234.97;5036730;28;45436;-70
2023/07/30 10:48:44;;;;;;;;;1.75;1.75;;;;;24.60;40.26;101246.44;5035545;28;45522;-70
2023/07/30 10:51:11;;;;;;;;;3.00;2.00;;;;;24.54;39.49;101229.97;5036698;28;45353;-71
2023/07/30 10:53:37;;;;;;;;;1.50;1.00;;;;;24.58;39.96;101239.34;5036281;28;45474;-70
2023/07/30 10:56:04;;;;;;;;;2.00;2.00;;;;;24.52;39.81;101212.25;5036451;28;45435;-70
2023/07/30 10:58:31;;;;;;;;;1.25;1.25;;;;;24.65;39.91;101222.16;5036399;28;45353;-71
2023/07/30 11:00:56;;;;;;;;;11.33;10.33;;;;;24.67;40.09;101225.47;5036430;28;45376;-72
2023/07/30 11:03:25;;;;;;;;;2.00;1.25;;;;;24.62;39.91;101209.81;5036471;28;45860;-71
2023/07/30 11:05:51;;;;;;;;;1.25;1.25;;;;;24.61;39.68;101201.88;5036289;28;45548;-72
2023/07/30 11:08:16;;;;;;;;;3.25;2.00;;;;;24.62;39.59;101206.25;5036188;28;45383;-71
2023/07/30 11:10:46;;;;;;;;;2.00;2.00;;;;;24.21;38.96;101156.06;5036594;28;45399;-71
2023/07/30 11:13:13;;;;;;;;;1.00;1.00;;;;;24.60;39.21;101221.97;5036006;28;45980;-70
2023/07/30 11:15:44;;;;;;;;;1.75;0.75;;;;;24.60;38.81;101241.84;5036181;28;45472;-71
2023/07/30 11:18:12;;;;;;;;;1.00;1.00;;;;;24.56;39.30;101218.88;5036561;28;45359;-70
2023/07/30 11:20:37;;;;;;;;;1.75;1.75;;;;;24.57;38.82;101234.97;5036491;28;45527;-70